sensor_id;sensor_type;location;lat;lon;timestamp;P1;durP1;ratioP1;P2;durP2;ratioP2
71821;SDS011;64096;52.548;13.406;2024-02-26T06:03:50;14.40;;;9.73;;
71821;SDS011;64096;52.548;13.406;2024-02-26T06:06:17;10.23;;;7.90;;
71821;SDS011;64096;52.548;13.406;2024-02-26T06:08:43;10.63;;;7.82;;
71821;SDS011;64096;52.548;13.406;2024-02-26T06:11:09;11.45;;;7.90;;
71821;SDS011;64096;52.548;13.406;2024-02-26T06:13:36;13.63;;;8.20;;
71821;SDS011;64096;52.548;13.406;2024-02-26T06:16:02;13.82;;;8.98;;
71821;SDS011;64096;52.548;13.406;2024-02-26T06:18:28;12.55;;;9.00;;
71821;SDS011;64096;52.548;13.406;2024-02-26T06:20:54;12.63;;;8.93;;
71821;SDS011;64096;52.548;13.406;2024-02-26T06:23:20;13.27;;;9.15;;
71821;SDS011;64096;52.548;13.406;2024-02-26T06:25:46;12.95;;;8.57;;
71821;SDS011;64096;52.548;13.406;2024-02-26T06:28:13;12.10;;;9.20;;
71821;SDS011;64096;52.548;13.406;2024-02-26T06:30:39;11.93;;;9.15;;
71821;SDS011;64096;52.548;13.406;2024-02-26T06:33:05;11.68;;;9.10;;
71821;SDS011;64096;52.548;13.406;2024-02-26T06:35:31;13.30;;;9.43;;
71821;SDS011;64096;52.548;13.406;2024-02-26T06:37:57;11.65;;;8.80;;
71821;SDS011;64096;52.548;13.406;2024-02-26T06:40:24;11.18;;;8.88;;
71821;SDS011;64096;52.548;13.406;2024-02-26T06:42:50;13.88;;;9.48;;
71821;SDS011;64096;52.548;13.406;2024-02-26T06:45:16;12.88;;;10.25;;
71821;SDS011;64096;52.548;13.406;2024-02-26T06:47:44;11.48;;;8.90;;
71821;SDS011;64096;52.548;13.406;2024-02-26T06:50:21;13.57;;;9.50;;
71821;SDS011;64096;52.548;13.406;2024-02-26T06:52:48;12.25;;;8.98;;
71821;SDS011;64096;52.548;13.406;2024-02-26T06:55:14;12.75;;;10.00;;
71821;SDS011;64096;52.548;13.406;2024-02-26T06:57:40;12.73;;;9.77;;
71821;SDS011;64096;52.548;13.406;2024-02-26T07:00:07;12.90;;;9.07;;
71821;SDS011;64096;52.548;13.406;2024-02-26T07:02:33;13.30;;;9.90;;
71821;SDS011;64096;52.548;13.406;2024-02-26T07:04:59;15.02;;;10.48;;
71821;SDS011;64096;52.548;13.406;2024-02-26T07:07:25;13.00;;;10.07;;
71821;SDS011;64096;52.548;13.406;2024-02-26T07:09:51;13.68;;;10.23;;
71821;SDS011;64096;52.548;13.406;2024-02-26T07:12:17;14.23;;;11.25;;
71821;SDS011;64096;52.548;13.406;2024-02-26T07:14:46;14.88;;;10.70;;
71821;SDS011;64096;52.548;13.406;2024-02-26T07:17:12;13.27;;;10.90;;
71821;SDS011;64096;52.548;13.406;2024-02-26T07:19:38;13.43;;;10.20;;
71821;SDS011;64096;52.548;13.406;2024-02-26T07:22:04;15.43;;;10.43;;
71821;SDS011;64096;52.548;13.406;2024-02-26T07:24:30;13.88;;;10.40;;
71821;SDS011;64096;52.548;13.406;2024-02-26T07:26:56;14.00;;;10.60;;
71821;SDS011;64096;52.548;13.406;2024-02-26T07:29:22;14.93;;;11.52;;
71821;SDS011;64096;52.548;13.406;2024-02-26T07:31:49;12.93;;;10.05;;
71821;SDS011;64096;52.548;13.406;2024-02-26T07:34:15;13.05;;;10.40;;
71821;SDS011;64096;52.548;13.406;2024-02-26T07:36:41;14.10;;;10.95;;
71821;SDS011;64096;52.548;13.406;2024-02-26T07:39:07;13.45;;;10.90;;
71821;SDS011;64096;52.548;13.406;2024-02-26T07:41:33;15.60;;;11.30;;
71821;SDS011;64096;52.548;13.406;2024-02-26T07:43:59;16.77;;;12.63;;
71821;SDS011;64096;52.548;13.406;2024-02-26T07:46:25;13.93;;;11.68;;
71821;SDS011;64096;52.548;13.406;2024-02-26T07:48:51;15.20;;;11.15;;
71821;SDS011;64096;52.548;13.406;2024-02-26T07:51:17;15.75;;;11.98;;
71821;SDS011;64096;52.548;13.406;2024-02-26T07:53:44;14.65;;;12.10;;
71821;SDS011;64096;52.548;13.406;2024-02-26T07:56:10;15.52;;;11.88;;
71821;SDS011;64096;52.548;13.406;2024-02-26T07:58:36;13.65;;;11.00;;
71821;SDS011;64096;52.548;13.406;2024-02-26T08:01:02;15.48;;;12.23;;
71821;SDS011;64096;52.548;13.406;2024-02-26T08:03:28;15.45;;;12.00;;
71821;SDS011;64096;52.548;13.406;2024-02-26T08:05:54;14.57;;;11.30;;
71821;SDS011;64096;52.548;13.406;2024-02-26T08:08:20;14.82;;;11.60;;
71821;SDS011;64096;52.548;13.406;2024-02-26T08:10:46;15.32;;;11.63;;
71821;SDS011;64096;52.548;13.406;2024-02-26T08:13:12;15.75;;;11.63;;
71821;SDS011;64096;52.548;13.406;2024-02-26T08:15:38;17.20;;;12.40;;
71821;SDS011;64096;52.548;13.406;2024-02-26T08:18:04;14.77;;;12.00;;
71821;SDS011;64096;52.548;13.406;2024-02-26T08:20:31;14.43;;;11.95;;
71821;SDS011;64096;52.548;13.406;2024-02-26T08:22:57;15.82;;;11.70;;
71821;SDS011;64096;52.548;13.406;2024-02-26T08:25:23;13.52;;;11.25;;
71821;SDS011;64096;52.548;13.406;2024-02-26T08:27:50;14.60;;;11.38;;
71821;SDS011;64096;52.548;13.406;2024-02-26T08:30:16;15.02;;;12.43;;
71821;SDS011;64096;52.548;13.406;2024-02-26T08:32:45;16.20;;;11.95;;
71821;SDS011;64096;52.548;13.406;2024-02-26T08:35:11;14.98;;;11.32;;
71821;SDS011;64096;52.548;13.406;2024-02-26T08:37:38;13.98;;;11.55;;
71821;SDS011;64096;52.548;13.406;2024-02-26T08:40:06;15.65;;;12.05;;
71821;SDS011;64096;52.548;13.406;2024-02-26T08:42:32;13.20;;;11.80;;
71821;SDS011;64096;52.548;13.406;2024-02-26T08:44:58;17.70;;;13.07;;
71821;SDS011;64096;52.548;13.406;2024-02-26T08:47:26;16.65;;;12.02;;
71821;SDS011;64096;52.548;13.406;2024-02-26T08:49:53;14.43;;;12.23;;
71821;SDS011;64096;52.548;13.406;2024-02-26T08:52:19;15.32;;;12.35;;
71821;SDS011;64096;52.548;13.406;2024-02-26T08:54:46;15.15;;;11.90;;
71821;SDS011;64096;52.548;13.406;2024-02-26T08:57:12;13.80;;;11.65;;
71821;SDS011;64096;52.548;13.406;2024-02-26T08:59:38;17.05;;;13.00;;
71821;SDS011;64096;52.548;13.406;2024-02-26T09:02:04;20.25;;;14.38;;
71821;SDS011;64096;52.548;13.406;2024-02-26T09:04:30;15.00;;;12.25;;
71821;SDS011;64096;52.548;13.406;2024-02-26T09:06:57;16.23;;;13.00;;
71821;SDS011;64096;52.548;13.406;2024-02-26T09:09:23;18.05;;;13.77;;
71821;SDS011;64096;52.548;13.406;2024-02-26T09:11:51;15.60;;;12.80;;
71821;SDS011;64096;52.548;13.406;2024-02-26T09:14:18;14.95;;;12.68;;
71821;SDS011;64096;52.548;13.406;2024-02-26T09:16:44;14.82;;;12.00;;
71821;SDS011;64096;52.548;13.406;2024-02-26T09:19:10;15.27;;;11.85;;
71821;SDS011;64096;52.548;13.406;2024-02-26T09:21:36;15.60;;;12.38;;
71821;SDS011;64096;52.548;13.406;2024-02-26T09:24:02;14.77;;;12.48;;
71821;SDS011;64096;52.548;13.406;2024-02-26T09:26:28;14.57;;;12.40;;
71821;SDS011;64096;52.548;13.406;2024-02-26T09:28:54;15.35;;;12.00;;
71821;SDS011;64096;52.548;13.406;2024-02-26T09:31:20;13.70;;;12.23;;
71821;SDS011;64096;52.548;13.406;2024-02-26T09:33:46;15.48;;;12.32;;
71821;SDS011;64096;52.548;13.406;2024-02-26T09:36:12;14.32;;;11.35;;
71821;SDS011;64096;52.548;13.406;2024-02-26T09:38:38;14.35;;;11.77;;
71821;SDS011;64096;52.548;13.406;2024-02-26T09:41:05;13.55;;;11.38;;
71821;SDS011;64096;52.548;13.406;2024-02-26T09:43:34;14.57;;;11.43;;
71821;SDS011;64096;52.548;13.406;2024-02-26T09:46:01;14.27;;;11.20;;
71821;SDS011;64096;52.548;13.406;2024-02-26T09:48:28;14.32;;;11.88;;
71821;SDS011;64096;52.548;13.406;2024-02-26T09:50:55;14.50;;;11.20;;
71821;SDS011;64096;52.548;13.406;2024-02-26T09:53:21;14.02;;;11.02;;
71821;SDS011;64096;52.548;13.406;2024-02-26T09:55:48;14.52;;;11.73;;
71821;SDS011;64096;52.548;13.406;2024-02-26T09:58:14;16.13;;;11.25;;
71821;SDS011;64096;52.548;13.406;2024-02-26T10:00:43;14.32;;;11.18;;
71821;SDS011;64096;52.548;13.406;2024-02-26T10:03:11;13.80;;;10.57;;
71821;SDS011;64096;52.548;13.406;2024-02-26T10:05:40;15.30;;;11.60;;
71821;SDS011;64096;52.548;13.406;2024-02-26T10:08:08;14.02;;;10.77;;
71821;SDS011;64096;52.548;13.406;2024-02-26T10:10:34;14.90;;;11.68;;
71821;SDS011;64096;52.548;13.406;2024-02-26T10:13:00;14.85;;;11.13;;
71821;SDS011;64096;52.548;13.406;2024-02-26T10:15:27;14.05;;;11.57;;
71821;SDS011;64096;52.548;13.406;2024-02-26T10:17:53;14.93;;;12.02;;
71821;SDS011;64096;52.548;13.406;2024-02-26T10:20:19;15.20;;;11.48;;
71821;SDS011;64096;52.548;13.406;2024-02-26T10:22:51;13.25;;;11.05;;
71821;SDS011;64096;52.548;13.406;2024-02-26T10:25:17;13.98;;;10.60;;
71821;SDS011;64096;52.548;13.406;2024-02-26T10:27:44;13.57;;;10.65;;
71821;SDS011;64096;52.548;13.406;2024-02-26T10:30:18;13.20;;;10.23;;
71821;SDS011;64096;52.548;13.406;2024-02-26T10:32:44;12.55;;;10.40;;
71821;SDS011;64096;52.548;13.406;2024-02-26T10:35:11;14.75;;;10.07;;
71821;SDS011;64096;52.548;13.406;2024-02-26T10:37:38;13.57;;;9.95;;
71821;SDS011;64096;52.548;13.406;2024-02-26T10:40:05;10.88;;;8.60;;
71821;SDS011;64096;52.548;13.406;2024-02-26T10:42:31;13.65;;;9.73;;
71821;SDS011;64096;52.548;13.406;2024-02-26T10:44:59;11.02;;;8.25;;
71821;SDS011;64096;52.548;13.406;2024-02-26T10:47:27;12.02;;;9.25;;
71821;SDS011;64096;52.548;13.406;2024-02-26T10:50:05;11.23;;;8.40;;
71821;SDS011;64096;52.548;13.406;2024-02-26T10:52:32;10.60;;;8.30;;
71821;SDS011;64096;52.548;13.406;2024-02-26T10:55:02;12.10;;;9.07;;
71821;SDS011;64096;52.548;13.406;2024-02-26T10:57:36;13.00;;;9.30;;
71821;SDS011;64096;52.548;13.406;2024-02-26T11:00:04;11.13;;;9.13;;
71821;SDS011;64096;52.548;13.406;2024-02-26T11:02:32;11.30;;;9.32;;
71821;SDS011;64096;52.548;13.406;2024-02-26T11:05:02;12.07;;;9.40;;
71821;SDS011;64096;52.548;13.406;2024-02-26T11:07:31;14.95;;;9.13;;
71821;SDS011;64096;52.548;13.406;2024-02-26T11:10:00;11.55;;;8.80;;
71821;SDS011;64096;52.548;13.406;2024-02-26T11:12:27;11.65;;;9.32;;
71821;SDS011;64096;52.548;13.406;2024-02-26T11:14:53;11.05;;;8.70;;
71821;SDS011;64096;52.548;13.406;2024-02-26T11:17:22;11.98;;;9.38;;
71821;SDS011;64096;52.548;13.406;2024-02-26T11:19:48;12.35;;;9.43;;
71821;SDS011;64096;52.548;13.406;2024-02-26T11:22:15;11.40;;;9.23;;
71821;SDS011;64096;52.548;13.406;2024-02-26T11:24:41;12.88;;;9.35;;
71821;SDS011;64096;52.548;13.406;2024-02-26T11:27:08;12.43;;;9.70;;
71821;SDS011;64096;52.548;13.406;2024-02-26T11:29:39;11.10;;;8.95;;
71821;SDS011;64096;52.548;13.406;2024-02-26T11:32:07;14.02;;;10.65;;
71821;SDS011;64096;52.548;13.406;2024-02-26T11:34:33;12.85;;;9.75;;
71821;SDS011;64096;52.548;13.406;2024-02-26T11:37:08;11.30;;;9.48;;
71821;SDS011;64096;52.548;13.406;2024-02-26T11:39:35;13.68;;;10.38;;
71821;SDS011;64096;52.548;13.406;2024-02-26T11:42:07;11.68;;;9.23;;
71821;SDS011;64096;52.548;13.406;2024-02-26T11:44:34;15.90;;;11.80;;
71821;SDS011;64096;52.548;13.406;2024-02-26T11:47:22;21.08;;;17.83;;
71821;SDS011;64096;52.548;13.406;2024-02-26T11:49:52;12.98;;;10.57;;
71821;SDS011;64096;52.548;13.406;2024-02-26T11:52:18;12.93;;;9.82;;
71821;SDS011;64096;52.548;13.406;2024-02-26T11:54:45;15.95;;;12.00;;
71821;SDS011;64096;52.548;13.406;2024-02-26T11:59:51;14.23;;;11.07;;
71821;SDS011;64096;52.548;13.406;2024-02-26T12:05:05;14.18;;;11.50;;
71821;SDS011;64096;52.548;13.406;2024-02-26T12:07:31;12.48;;;10.45;;
71821;SDS011;64096;52.548;13.406;2024-02-26T12:10:42;15.35;;;11.30;;
71821;SDS011;64096;52.548;13.406;2024-02-26T12:12:43;15.38;;;10.48;;
71821;SDS011;64096;52.548;13.406;2024-02-26T12:15:10;14.90;;;11.82;;
71821;SDS011;64096;52.548;13.406;2024-02-26T12:17:37;15.30;;;11.57;;
71821;SDS011;64096;52.548;13.406;2024-02-26T12:20:12;12.80;;;9.88;;
71821;SDS011;64096;52.548;13.406;2024-02-26T12:22:41;14.20;;;10.52;;
71821;SDS011;64096;52.548;13.406;2024-02-26T12:25:10;12.75;;;9.88;;
71821;SDS011;64096;52.548;13.406;2024-02-26T12:27:36;12.45;;;9.77;;
71821;SDS011;64096;52.548;13.406;2024-02-26T12:30:03;13.10;;;10.52;;
71821;SDS011;64096;52.548;13.406;2024-02-26T12:32:29;12.27;;;9.95;;
71821;SDS011;64096;52.548;13.406;2024-02-26T12:34:56;11.32;;;9.07;;
71821;SDS011;64096;52.548;13.406;2024-02-26T12:37:22;11.77;;;9.48;;
71821;SDS011;64096;52.548;13.406;2024-02-26T12:39:48;12.60;;;9.63;;
71821;SDS011;64096;52.548;13.406;2024-02-26T12:42:15;11.70;;;9.05;;
71821;SDS011;64096;52.548;13.406;2024-02-26T12:44:41;12.40;;;9.10;;
71821;SDS011;64096;52.548;13.406;2024-02-26T12:47:07;9.73;;;7.88;;
71821;SDS011;64096;52.548;13.406;2024-02-26T12:49:35;10.45;;;8.40;;
71821;SDS011;64096;52.548;13.406;2024-02-26T12:52:01;11.57;;;8.13;;
71821;SDS011;64096;52.548;13.406;2024-02-26T12:54:30;9.93;;;7.40;;
71821;SDS011;64096;52.548;13.406;2024-02-26T12:56:57;9.45;;;7.43;;
71821;SDS011;64096;52.548;13.406;2024-02-26T12:59:24;10.82;;;7.55;;
71821;SDS011;64096;52.548;13.406;2024-02-26T13:01:51;9.93;;;7.40;;
71821;SDS011;64096;52.548;13.406;2024-02-26T13:04:17;9.48;;;6.50;;
71821;SDS011;64096;52.548;13.406;2024-02-26T13:06:44;7.88;;;5.80;;
71821;SDS011;64096;52.548;13.406;2024-02-26T13:09:14;9.85;;;6.45;;
71821;SDS011;64096;52.548;13.406;2024-02-26T13:11:42;9.27;;;6.25;;
71821;SDS011;64096;52.548;13.406;2024-02-26T13:14:18;8.90;;;5.90;;
71821;SDS011;64096;52.548;13.406;2024-02-26T13:16:45;8.52;;;6.00;;
71821;SDS011;64096;52.548;13.406;2024-02-26T13:19:11;7.82;;;5.55;;
71821;SDS011;64096;52.548;13.406;2024-02-26T13:21:37;7.93;;;5.20;;
71821;SDS011;64096;52.548;13.406;2024-02-26T13:24:03;9.35;;;5.53;;
71821;SDS011;64096;52.548;13.406;2024-02-26T13:26:29;8.57;;;5.20;;
71821;SDS011;64096;52.548;13.406;2024-02-26T13:28:59;7.53;;;5.18;;
71821;SDS011;64096;52.548;13.406;2024-02-26T13:31:26;8.75;;;5.05;;
71821;SDS011;64096;52.548;13.406;2024-02-26T13:33:52;7.00;;;4.80;;
71821;SDS011;64096;52.548;13.406;2024-02-26T13:36:21;7.78;;;4.53;;
71821;SDS011;64096;52.548;13.406;2024-02-26T13:38:53;6.03;;;4.25;;
71821;SDS011;64096;52.548;13.406;2024-02-26T13:41:22;6.50;;;4.13;;
71821;SDS011;64096;52.548;13.406;2024-02-26T13:43:49;7.10;;;4.10;;
71821;SDS011;64096;52.548;13.406;2024-02-26T13:46:16;6.50;;;4.18;;
71821;SDS011;64096;52.548;13.406;2024-02-26T13:48:42;7.43;;;4.55;;
71821;SDS011;64096;52.548;13.406;2024-02-26T13:51:08;12.38;;;5.75;;
71821;SDS011;64096;52.548;13.406;2024-02-26T13:53:35;6.68;;;4.35;;
71821;SDS011;64096;52.548;13.406;2024-02-26T13:56:01;7.53;;;3.95;;
71821;SDS011;64096;52.548;13.406;2024-02-26T13:58:30;6.03;;;3.92;;
71821;SDS011;64096;52.548;13.406;2024-02-26T14:13:55;7.68;;;4.75;;
71821;SDS011;64096;52.548;13.406;2024-02-26T14:16:21;7.25;;;4.15;;
71821;SDS011;64096;52.548;13.406;2024-02-26T14:18:47;5.82;;;3.95;;
71821;SDS011;64096;52.548;13.406;2024-02-26T14:21:19;11.23;;;6.05;;
71821;SDS011;64096;52.548;13.406;2024-02-26T14:23:45;10.45;;;5.38;;
71821;SDS011;64096;52.548;13.406;2024-02-26T14:26:12;9.23;;;5.53;;
71821;SDS011;64096;52.548;13.406;2024-02-26T14:28:38;10.60;;;5.97;;
71821;SDS011;64096;52.548;13.406;2024-02-26T14:31:05;8.73;;;5.25;;
71821;SDS011;64096;52.548;13.406;2024-02-26T14:33:32;9.32;;;6.05;;
71821;SDS011;64096;52.548;13.406;2024-02-26T14:35:58;8.35;;;5.95;;
71821;SDS011;64096;52.548;13.406;2024-02-26T14:38:24;8.38;;;5.38;;
71821;SDS011;64096;52.548;13.406;2024-02-26T14:40:50;9.02;;;5.72;;
71821;SDS011;64096;52.548;13.406;2024-02-26T14:43:16;8.63;;;5.30;;
71821;SDS011;64096;52.548;13.406;2024-02-26T14:45:42;8.57;;;6.10;;
71821;SDS011;64096;52.548;13.406;2024-02-26T14:48:08;9.07;;;6.00;;
71821;SDS011;64096;52.548;13.406;2024-02-26T14:50:35;7.82;;;5.40;;
71821;SDS011;64096;52.548;13.406;2024-02-26T14:53:01;8.90;;;6.05;;
71821;SDS011;64096;52.548;13.406;2024-02-26T14:55:27;9.70;;;6.53;;
71821;SDS011;64096;52.548;13.406;2024-02-26T14:57:53;8.48;;;5.75;;
71821;SDS011;64096;52.548;13.406;2024-02-26T15:00:19;9.15;;;6.38;;
71821;SDS011;64096;52.548;13.406;2024-02-26T15:02:45;9.68;;;6.30;;
71821;SDS011;64096;52.548;13.406;2024-02-26T15:05:11;8.63;;;5.78;;
71821;SDS011;64096;52.548;13.406;2024-02-26T15:07:37;9.35;;;6.45;;
71821;SDS011;64096;52.548;13.406;2024-02-26T15:10:05;8.35;;;6.07;;
71821;SDS011;64096;52.548;13.406;2024-02-26T15:12:32;8.43;;;5.82;;
71821;SDS011;64096;52.548;13.406;2024-02-26T15:14:58;8.50;;;5.70;;
71821;SDS011;64096;52.548;13.406;2024-02-26T15:17:25;8.82;;;6.47;;
71821;SDS011;64096;52.548;13.406;2024-02-26T15:19:53;8.30;;;5.50;;
71821;SDS011;64096;52.548;13.406;2024-02-26T15:22:21;8.50;;;5.82;;
71821;SDS011;64096;52.548;13.406;2024-02-26T15:24:48;8.07;;;5.90;;
71821;SDS011;64096;52.548;13.406;2024-02-26T15:27:14;8.43;;;5.70;;
71821;SDS011;64096;52.548;13.406;2024-02-26T15:29:40;8.32;;;5.50;;
71821;SDS011;64096;52.548;13.406;2024-02-26T15:32:06;9.05;;;6.10;;
71821;SDS011;64096;52.548;13.406;2024-02-26T15:34:32;7.93;;;5.57;;
71821;SDS011;64096;52.548;13.406;2024-02-26T15:36:58;7.93;;;5.53;;
71821;SDS011;64096;52.548;13.406;2024-02-26T15:39:24;8.38;;;5.70;;
71821;SDS011;64096;52.548;13.406;2024-02-26T15:41:51;8.75;;;6.38;;
71821;SDS011;64096;52.548;13.406;2024-02-26T15:44:18;7.38;;;5.43;;
71821;SDS011;64096;52.548;13.406;2024-02-26T15:46:44;8.07;;;5.88;;
71821;SDS011;64096;52.548;13.406;2024-02-26T15:49:10;8.40;;;5.97;;
71821;SDS011;64096;52.548;13.406;2024-02-26T15:51:36;8.43;;;6.15;;
71821;SDS011;64096;52.548;13.406;2024-02-26T15:54:02;7.97;;;6.10;;
71821;SDS011;64096;52.548;13.406;2024-02-26T15:56:28;8.63;;;6.32;;
71821;SDS011;64096;52.548;13.406;2024-02-26T15:58:54;9.93;;;6.75;;
71821;SDS011;64096;52.548;13.406;2024-02-26T16:01:21;10.05;;;7.78;;
71821;SDS011;64096;52.548;13.406;2024-02-26T16:03:47;10.73;;;7.68;;
71821;SDS011;64096;52.548;13.406;2024-02-26T16:06:19;10.40;;;8.13;;
71821;SDS011;64096;52.548;13.406;2024-02-26T16:08:46;10.88;;;7.85;;
71821;SDS011;64096;52.548;13.406;2024-02-26T16:11:13;10.93;;;7.80;;
71821;SDS011;64096;52.548;13.406;2024-02-26T16:13:39;9.80;;;7.90;;
71821;SDS011;64096;52.548;13.406;2024-02-26T16:16:07;10.43;;;8.73;;
71821;SDS011;64096;52.548;13.406;2024-02-26T16:18:35;12.38;;;8.82;;
71821;SDS011;64096;52.548;13.406;2024-02-26T16:21:01;11.38;;;8.27;;
71821;SDS011;64096;52.548;13.406;2024-02-26T16:23:27;12.13;;;8.63;;
71821;SDS011;64096;52.548;13.406;2024-02-26T16:25:54;12.27;;;9.13;;
71821;SDS011;64096;52.548;13.406;2024-02-26T16:28:20;11.00;;;8.35;;
71821;SDS011;64096;52.548;13.406;2024-02-26T16:30:50;12.95;;;9.40;;
71821;SDS011;64096;52.548;13.406;2024-02-26T16:33:17;12.25;;;8.85;;
71821;SDS011;64096;52.548;13.406;2024-02-26T16:35:43;11.93;;;8.50;;
71821;SDS011;64096;52.548;13.406;2024-02-26T16:38:09;11.50;;;8.57;;
71821;SDS011;64096;52.548;13.406;2024-02-26T16:40:36;11.55;;;8.63;;
71821;SDS011;64096;52.548;13.406;2024-02-26T16:43:02;13.18;;;9.13;;
71821;SDS011;64096;52.548;13.406;2024-02-26T16:45:31;11.57;;;9.10;;
71821;SDS011;64096;52.548;13.406;2024-02-26T16:47:57;13.60;;;9.35;;
71821;SDS011;64096;52.548;13.406;2024-02-26T16:50:23;11.80;;;8.90;;
71821;SDS011;64096;52.548;13.406;2024-02-26T16:52:50;13.07;;;9.27;;
71821;SDS011;64096;52.548;13.406;2024-02-26T16:55:16;11.73;;;9.25;;
71821;SDS011;64096;52.548;13.406;2024-02-26T16:57:42;12.30;;;10.32;;
71821;SDS011;64096;52.548;13.406;2024-02-26T17:00:09;14.20;;;10.10;;
71821;SDS011;64096;52.548;13.406;2024-02-26T17:02:37;14.05;;;9.88;;
71821;SDS011;64096;52.548;13.406;2024-02-26T17:05:04;13.20;;;9.90;;
71821;SDS011;64096;52.548;13.406;2024-02-26T17:07:32;14.23;;;9.52;;
71821;SDS011;64096;52.548;13.406;2024-02-26T17:09:58;14.60;;;10.77;;
71821;SDS011;64096;52.548;13.406;2024-02-26T17:12:24;15.02;;;10.80;;
71821;SDS011;64096;52.548;13.406;2024-02-26T17:14:50;16.00;;;11.20;;
71821;SDS011;64096;52.548;13.406;2024-02-26T17:17:17;18.67;;;12.18;;
71821;SDS011;64096;52.548;13.406;2024-02-26T17:19:43;19.10;;;12.50;;
71821;SDS011;64096;52.548;13.406;2024-02-26T17:22:09;18.77;;;12.77;;
71821;SDS011;64096;52.548;13.406;2024-02-26T17:24:36;22.17;;;14.10;;
71821;SDS011;64096;52.548;13.406;2024-02-26T17:27:02;25.67;;;14.80;;
71821;SDS011;64096;52.548;13.406;2024-02-26T17:29:29;24.98;;;15.15;;
71821;SDS011;64096;52.548;13.406;2024-02-26T17:31:55;25.58;;;13.82;;
71821;SDS011;64096;52.548;13.406;2024-02-26T17:34:21;24.27;;;14.43;;
71821;SDS011;64096;52.548;13.406;2024-02-26T17:36:47;23.40;;;15.02;;
71821;SDS011;64096;52.548;13.406;2024-02-26T17:39:14;22.33;;;14.38;;
71821;SDS011;64096;52.548;13.406;2024-02-26T17:41:40;24.55;;;14.18;;
71821;SDS011;64096;52.548;13.406;2024-02-26T17:44:06;21.23;;;13.57;;
71821;SDS011;64096;52.548;13.406;2024-02-26T17:46:33;20.70;;;13.38;;
71821;SDS011;64096;52.548;13.406;2024-02-26T17:48:59;20.95;;;12.90;;
71821;SDS011;64096;52.548;13.406;2024-02-26T17:51:28;20.42;;;12.55;;
71821;SDS011;64096;52.548;13.406;2024-02-26T17:53:54;20.17;;;12.65;;
71821;SDS011;64096;52.548;13.406;2024-02-26T17:56:20;19.98;;;12.90;;
71821;SDS011;64096;52.548;13.406;2024-02-26T17:58:46;16.55;;;11.60;;
71821;SDS011;64096;52.548;13.406;2024-02-26T18:01:12;18.80;;;12.93;;
71821;SDS011;64096;52.548;13.406;2024-02-26T18:03:38;16.58;;;11.27;;
71821;SDS011;64096;52.548;13.406;2024-02-26T18:06:04;15.15;;;10.82;;
71821;SDS011;64096;52.548;13.406;2024-02-26T18:08:30;17.80;;;12.35;;
71821;SDS011;64096;52.548;13.406;2024-02-26T18:10:57;15.05;;;11.40;;
71821;SDS011;64096;52.548;13.406;2024-02-26T18:13:23;16.13;;;10.90;;
71821;SDS011;64096;52.548;13.406;2024-02-26T18:15:50;13.93;;;10.00;;
71821;SDS011;64096;52.548;13.406;2024-02-26T18:18:16;15.40;;;10.38;;
71821;SDS011;64096;52.548;13.406;2024-02-26T18:20:42;13.80;;;9.95;;
71821;SDS011;64096;52.548;13.406;2024-02-26T18:23:08;15.80;;;10.68;;
71821;SDS011;64096;52.548;13.406;2024-02-26T18:25:34;12.48;;;9.55;;
71821;SDS011;64096;52.548;13.406;2024-02-26T18:28:00;13.55;;;10.30;;
71821;SDS011;64096;52.548;13.406;2024-02-26T18:30:26;13.48;;;10.32;;
71821;SDS011;64096;52.548;13.406;2024-02-26T18:32:52;12.85;;;9.32;;
71821;SDS011;64096;52.548;13.406;2024-02-26T18:35:18;12.23;;;9.48;;
71821;SDS011;64096;52.548;13.406;2024-02-26T18:37:44;12.75;;;9.32;;
71821;SDS011;64096;52.548;13.406;2024-02-26T18:40:11;13.45;;;9.40;;
71821;SDS011;64096;52.548;13.406;2024-02-26T18:42:37;12.80;;;8.43;;
71821;SDS011;64096;52.548;13.406;2024-02-26T18:45:04;12.55;;;9.10;;
71821;SDS011;64096;52.548;13.406;2024-02-26T18:47:31;11.13;;;8.80;;
71821;SDS011;64096;52.548;13.406;2024-02-26T18:49:57;12.73;;;9.07;;
71821;SDS011;64096;52.548;13.406;2024-02-26T18:52:25;13.23;;;9.05;;
71821;SDS011;64096;52.548;13.406;2024-02-26T18:54:51;13.05;;;9.40;;
71821;SDS011;64096;52.548;13.406;2024-02-26T18:57:17;13.88;;;8.88;;
71821;SDS011;64096;52.548;13.406;2024-02-26T18:59:43;14.25;;;9.95;;
71821;SDS011;64096;52.548;13.406;2024-02-26T19:02:11;10.93;;;8.43;;
71821;SDS011;64096;52.548;13.406;2024-02-26T19:04:38;12.10;;;8.60;;
71821;SDS011;64096;52.548;13.406;2024-02-26T19:07:04;11.73;;;8.13;;
71821;SDS011;64096;52.548;13.406;2024-02-26T19:09:30;14.80;;;11.10;;
71821;SDS011;64096;52.548;13.406;2024-02-26T19:11:56;14.65;;;9.40;;
71821;SDS011;64096;52.548;13.406;2024-02-26T19:14:22;10.85;;;7.78;;
71821;SDS011;64096;52.548;13.406;2024-02-26T19:16:49;12.02;;;7.63;;
71821;SDS011;64096;52.548;13.406;2024-02-26T19:19:15;12.55;;;7.38;;
71821;SDS011;64096;52.548;13.406;2024-02-26T19:21:41;10.95;;;8.13;;
71821;SDS011;64096;52.548;13.406;2024-02-26T19:24:09;12.20;;;8.05;;
71821;SDS011;64096;52.548;13.406;2024-02-26T19:26:39;10.32;;;8.05;;
71821;SDS011;64096;52.548;13.406;2024-02-26T19:29:05;11.88;;;8.02;;
71821;SDS011;64096;52.548;13.406;2024-02-26T19:31:31;11.02;;;7.38;;
71821;SDS011;64096;52.548;13.406;2024-02-26T19:33:58;9.18;;;6.50;;
71821;SDS011;64096;52.548;13.406;2024-02-26T19:36:24;11.75;;;7.30;;
71821;SDS011;64096;52.548;13.406;2024-02-26T19:38:50;9.80;;;7.25;;
71821;SDS011;64096;52.548;13.406;2024-02-26T19:41:16;12.63;;;7.97;;
71821;SDS011;64096;52.548;13.406;2024-02-26T19:43:43;10.90;;;7.20;;
71821;SDS011;64096;52.548;13.406;2024-02-26T19:46:09;11.38;;;7.25;;
71821;SDS011;64096;52.548;13.406;2024-02-26T19:48:35;10.25;;;6.70;;
71821;SDS011;64096;52.548;13.406;2024-02-26T19:51:03;9.15;;;6.65;;
71821;SDS011;64096;52.548;13.406;2024-02-26T19:53:29;9.85;;;6.90;;
71821;SDS011;64096;52.548;13.406;2024-02-26T19:55:55;9.20;;;6.93;;
71821;SDS011;64096;52.548;13.406;2024-02-26T19:58:22;10.30;;;6.72;;
71821;SDS011;64096;52.548;13.406;2024-02-26T20:00:48;9.52;;;6.75;;
71821;SDS011;64096;52.548;13.406;2024-02-26T20:03:14;9.77;;;6.93;;
71821;SDS011;64096;52.548;13.406;2024-02-26T20:05:40;9.70;;;6.57;;
71821;SDS011;64096;52.548;13.406;2024-02-26T20:08:08;9.38;;;6.68;;
71821;SDS011;64096;52.548;13.406;2024-02-26T20:10:34;9.27;;;6.18;;
71821;SDS011;64096;52.548;13.406;2024-02-26T20:13:00;11.35;;;7.05;;
71821;SDS011;64096;52.548;13.406;2024-02-26T20:15:26;8.85;;;5.97;;
71821;SDS011;64096;52.548;13.406;2024-02-26T20:17:52;8.48;;;6.22;;
71821;SDS011;64096;52.548;13.406;2024-02-26T20:20:18;9.55;;;6.32;;
71821;SDS011;64096;52.548;13.406;2024-02-26T20:22:44;9.35;;;6.38;;
71821;SDS011;64096;52.548;13.406;2024-02-26T20:25:13;10.13;;;6.70;;
71821;SDS011;64096;52.548;13.406;2024-02-26T20:27:40;10.43;;;6.38;;
71821;SDS011;64096;52.548;13.406;2024-02-26T20:30:06;7.68;;;5.85;;
71821;SDS011;64096;52.548;13.406;2024-02-26T20:32:33;8.98;;;6.03;;
71821;SDS011;64096;52.548;13.406;2024-02-26T20:35:00;9.15;;;6.53;;
71821;SDS011;64096;52.548;13.406;2024-02-26T20:37:27;8.88;;;5.93;;